SAS73B EGCC-EFHK
Flight info
| Callsign | SAS73B |
|---|---|
| Flight time | 2h 13m |
| Altitude | 41000 |
| Route | DESIG L603 LAMIX UT29 LIBSO UL975 ROPAL DCT LESRA L975 GOLUM N866 KEMEG DCT ETVOK DCT DETNA N866 INVOL DCT DETSO DCT TUSNI DCT IBVUT Y363 LAKUT |
| Aircraft | A359/H-SDE2E3GHIJ3J4J5LM1ORWXY/LB1D1 |
Departure
| Time | 2026-04-23 15:30 |
|---|---|
| Airport | Manchester Airport (EGCC) |
Arrival
| Time | 2026-04-23 17:43 |
|---|---|
| Airport | Helsinki Vantaa Airport (EFHK) |
| Time | Latitude | Longitude | Altitude | Speed | Heading |
|---|---|---|---|---|---|
| 2026-04-23 14:59 | 53.36571 | -2.27972 | 254 ft | 0 kts | 43° |
| 2026-04-23 15:18 | 53.36566 | -2.27980 | 254 ft | 4 kts | 49° |
| 2026-04-23 15:18 | 53.36548 | -2.28013 | 254 ft | 4 kts | 56° |
| 2026-04-23 15:18 | 53.36538 | -2.28053 | 254 ft | 4 kts | 87° |
| 2026-04-23 15:19 | 53.36542 | -2.28095 | 255 ft | 4 kts | 120° |
| 2026-04-23 15:19 | 53.36547 | -2.28108 | 255 ft | 0 kts | 128° |
| 2026-04-23 15:22 | 53.36540 | -2.28095 | 255 ft | 5 kts | 127° |
| 2026-04-23 15:22 | 53.36503 | -2.28031 | 255 ft | 10 kts | 139° |
| 2026-04-23 15:22 | 53.36440 | -2.27945 | 254 ft | 14 kts | 142° |
| 2026-04-23 15:22 | 53.36377 | -2.27940 | 254 ft | 0 kts | 221° |
| 2026-04-23 15:23 | 53.36377 | -2.27941 | 254 ft | 0 kts | 223° |
| 2026-04-23 15:23 | 53.36373 | -2.27946 | 255 ft | 4 kts | 223° |
| 2026-04-23 15:23 | 53.36341 | -2.27997 | 255 ft | 8 kts | 223° |
| 2026-04-23 15:24 | 53.36286 | -2.28063 | 256 ft | 11 kts | 200° |
| 2026-04-23 15:24 | 53.36205 | -2.28076 | 257 ft | 12 kts | 158° |
| 2026-04-23 15:24 | 53.36140 | -2.27974 | 256 ft | 15 kts | 135° |
| 2026-04-23 15:24 | 53.36056 | -2.27845 | 255 ft | 18 kts | 151° |
| 2026-04-23 15:25 | 53.35935 | -2.27848 | 256 ft | 16 kts | 184° |
| 2026-04-23 15:25 | 53.35879 | -2.27835 | 256 ft | 0 kts | 161° |
| 2026-04-23 15:25 | 53.35868 | -2.27833 | 256 ft | 6 kts | 178° |
| 2026-04-23 15:25 | 53.35802 | -2.27849 | 256 ft | 11 kts | 189° |
| 2026-04-23 15:26 | 53.35710 | -2.27873 | 257 ft | 15 kts | 189° |
| 2026-04-23 15:26 | 53.35595 | -2.27901 | 257 ft | 18 kts | 185° |
| 2026-04-23 15:26 | 53.35462 | -2.27936 | 258 ft | 21 kts | 203° |
| 2026-04-23 15:26 | 53.35348 | -2.28092 | 259 ft | 22 kts | 225° |
| 2026-04-23 15:27 | 53.35238 | -2.28289 | 261 ft | 24 kts | 230° |
| 2026-04-23 15:27 | 53.35128 | -2.28510 | 264 ft | 26 kts | 230° |
| 2026-04-23 15:27 | 53.35007 | -2.28749 | 267 ft | 28 kts | 227° |
| 2026-04-23 15:27 | 53.34872 | -2.28990 | 270 ft | 29 kts | 228° |
| 2026-04-23 15:28 | 53.34761 | -2.29205 | 272 ft | 13 kts | 230° |
| 2026-04-23 15:28 | 53.34706 | -2.29303 | 273 ft | 11 kts | 216° |
| 2026-04-23 15:28 | 53.34696 | -2.29312 | 273 ft | 0 kts | 207° |
| 2026-04-23 15:28 | 53.34642 | -2.29332 | 275 ft | 16 kts | 180° |
| 2026-04-23 15:29 | 53.34543 | -2.29282 | 277 ft | 9 kts | 142° |
| 2026-04-23 15:29 | 53.34543 | -2.29216 | 276 ft | 6 kts | 53° |
| 2026-04-23 15:29 | 53.34674 | -2.28944 | 273 ft | 69 kts | 51° |
| 2026-04-23 15:29 | 53.35146 | -2.27967 | 260 ft | 144 kts | 52° |
| 2026-04-23 15:30 | 53.35792 | -2.26498 | 915 ft | 158 kts | 56° |
| 2026-04-23 15:30 | 53.36440 | -2.25055 | 2015 ft | 153 kts | 54° |
| 2026-04-23 15:30 | 53.37163 | -2.23576 | 2628 ft | 176 kts | 54° |
| 2026-04-23 15:30 | 53.37983 | -2.21901 | 3047 ft | 201 kts | 56° |
| 2026-04-23 15:31 | 53.38912 | -2.19939 | 3434 ft | 228 kts | 55° |
| 2026-04-23 15:31 | 53.39946 | -2.17735 | 3838 ft | 251 kts | 54° |
| 2026-04-23 15:31 | 53.41047 | -2.15395 | 4514 ft | 260 kts | 55° |
| 2026-04-23 15:31 | 53.42174 | -2.12982 | 5372 ft | 264 kts | 55° |
| 2026-04-23 15:32 | 53.43317 | -2.10524 | 6189 ft | 270 kts | 54° |
| 2026-04-23 15:32 | 53.44489 | -2.08010 | 7036 ft | 276 kts | 54° |
| 2026-04-23 15:32 | 53.45679 | -2.05451 | 7864 ft | 279 kts | 53° |
| 2026-04-23 15:32 | 53.46874 | -2.02879 | 8827 ft | 281 kts | 53° |
| 2026-04-23 15:33 | 53.48093 | -2.00251 | 9695 ft | 287 kts | 52° |
| 2026-04-23 15:33 | 53.49339 | -1.97597 | 10582 ft | 292 kts | 51° |
| 2026-04-23 15:33 | 53.50571 | -1.94825 | 11125 ft | 309 kts | 56° |
| 2026-04-23 15:33 | 53.51748 | -1.91590 | 11489 ft | 332 kts | 63° |
| 2026-04-23 15:34 | 53.52635 | -1.87900 | 11905 ft | 349 kts | 71° |
| 2026-04-23 15:34 | 53.53399 | -1.83954 | 12494 ft | 360 kts | 74° |
| 2026-04-23 15:34 | 53.54081 | -1.79908 | 13252 ft | 366 kts | 76° |
| 2026-04-23 15:34 | 53.54725 | -1.75742 | 14076 ft | 370 kts | 77° |
| 2026-04-23 15:35 | 53.55352 | -1.71513 | 14743 ft | 376 kts | 77° |
| 2026-04-23 15:35 | 53.55981 | -1.67232 | 15574 ft | 376 kts | 77° |
| 2026-04-23 15:35 | 53.56611 | -1.62961 | 16346 ft | 379 kts | 77° |
| 2026-04-23 15:35 | 53.57255 | -1.58631 | 17088 ft | 381 kts | 77° |
| 2026-04-23 15:36 | 53.57903 | -1.54300 | 17895 ft | 383 kts | 77° |
| 2026-04-23 15:36 | 53.58557 | -1.49946 | 18727 ft | 384 kts | 77° |
| 2026-04-23 15:36 | 53.59212 | -1.45578 | 19410 ft | 387 kts | 77° |
| 2026-04-23 15:36 | 53.59874 | -1.41161 | 20112 ft | 389 kts | 76° |
| 2026-04-23 15:37 | 53.60536 | -1.36725 | 20784 ft | 393 kts | 76° |
| 2026-04-23 15:37 | 53.61206 | -1.32227 | 21500 ft | 395 kts | 76° |
| 2026-04-23 15:37 | 53.61873 | -1.27729 | 22256 ft | 397 kts | 76° |
| 2026-04-23 15:37 | 53.62536 | -1.23252 | 22925 ft | 402 kts | 76° |
| 2026-04-23 15:38 | 53.63210 | -1.18685 | 23732 ft | 403 kts | 76° |
| 2026-04-23 15:38 | 53.63889 | -1.14069 | 24324 ft | 409 kts | 76° |
| 2026-04-23 15:38 | 53.64575 | -1.09396 | 24963 ft | 411 kts | 76° |
| 2026-04-23 15:38 | 53.65263 | -1.04698 | 25498 ft | 417 kts | 76° |
| 2026-04-23 15:39 | 53.65963 | -0.99897 | 25917 ft | 425 kts | 78° |
| 2026-04-23 15:39 | 53.66670 | -0.95021 | 26406 ft | 431 kts | 78° |
| 2026-04-23 15:39 | 53.67383 | -0.90090 | 26986 ft | 434 kts | 79° |
| 2026-04-23 15:39 | 53.68100 | -0.85117 | 27550 ft | 438 kts | 79° |
| 2026-04-23 15:40 | 53.68822 | -0.80096 | 28090 ft | 443 kts | 80° |
| 2026-04-23 15:40 | 53.69546 | -0.75048 | 28437 ft | 445 kts | 80° |
| 2026-04-23 15:40 | 53.70274 | -0.69959 | 28505 ft | 446 kts | 80° |
| 2026-04-23 15:41 | 53.71718 | -0.59814 | 28495 ft | 448 kts | 80° |
| 2026-04-23 15:41 | 53.73164 | -0.49587 | 28493 ft | 448 kts | 80° |
| 2026-04-23 15:42 | 53.74605 | -0.39324 | 28503 ft | 449 kts | 80° |
| 2026-04-23 15:42 | 53.76039 | -0.29037 | 28503 ft | 450 kts | 80° |
| 2026-04-23 15:42 | 53.76754 | -0.23880 | 28695 ft | 452 kts | 81° |
| 2026-04-23 15:43 | 53.77470 | -0.18700 | 29227 ft | 455 kts | 81° |
| 2026-04-23 15:43 | 53.78189 | -0.13473 | 29820 ft | 457 kts | 81° |
| 2026-04-23 15:43 | 53.78910 | -0.08214 | 30327 ft | 461 kts | 82° |
| 2026-04-23 15:43 | 53.79635 | -0.02912 | 30771 ft | 465 kts | 82° |
| 2026-04-23 15:44 | 53.80355 | 0.02372 | 31205 ft | 467 kts | 82° |
| 2026-04-23 15:44 | 53.81084 | 0.07728 | 31648 ft | 469 kts | 82° |
| 2026-04-23 15:44 | 53.81815 | 0.13129 | 32042 ft | 472 kts | 82° |
| 2026-04-23 15:44 | 53.82546 | 0.18560 | 32404 ft | 475 kts | 82° |
| 2026-04-23 15:45 | 53.83279 | 0.24022 | 32770 ft | 478 kts | 82° |
| 2026-04-23 15:45 | 53.84017 | 0.29535 | 33131 ft | 481 kts | 82° |
| 2026-04-23 15:45 | 53.84757 | 0.35084 | 33491 ft | 483 kts | 82° |
| 2026-04-23 15:45 | 53.85495 | 0.40639 | 33819 ft | 486 kts | 82° |
| 2026-04-23 15:46 | 53.86235 | 0.46232 | 34161 ft | 488 kts | 82° |
| 2026-04-23 15:46 | 53.86974 | 0.51838 | 34588 ft | 488 kts | 82° |
| 2026-04-23 15:46 | 53.87726 | 0.57441 | 35021 ft | 487 kts | 81° |
| 2026-04-23 15:46 | 53.88759 | 0.62921 | 35454 ft | 490 kts | 72° |
| 2026-04-23 15:47 | 53.90247 | 0.68142 | 35872 ft | 493 kts | 65° |
| 2026-04-23 15:47 | 53.91979 | 0.73165 | 36270 ft | 493 kts | 62° |
| 2026-04-23 15:47 | 53.93807 | 0.78097 | 36675 ft | 493 kts | 61° |
| 2026-04-23 15:47 | 53.95675 | 0.82984 | 37059 ft | 492 kts | 60° |
| 2026-04-23 15:48 | 53.97545 | 0.87842 | 37438 ft | 491 kts | 60° |
| 2026-04-23 15:48 | 53.99406 | 0.92695 | 37805 ft | 489 kts | 60° |
| 2026-04-23 15:48 | 54.01251 | 0.97550 | 38134 ft | 489 kts | 60° |
| 2026-04-23 15:48 | 54.03089 | 1.02429 | 38468 ft | 488 kts | 60° |
| 2026-04-23 15:49 | 54.04896 | 1.07251 | 38784 ft | 488 kts | 60° |
| 2026-04-23 15:49 | 54.06740 | 1.12198 | 38937 ft | 491 kts | 60° |
| 2026-04-23 15:49 | 54.08566 | 1.17111 | 39213 ft | 490 kts | 60° |
| 2026-04-23 15:49 | 54.10389 | 1.22025 | 39477 ft | 489 kts | 60° |
| 2026-04-23 15:50 | 54.12196 | 1.26901 | 39713 ft | 488 kts | 60° |
| 2026-04-23 15:50 | 54.13987 | 1.31745 | 39952 ft | 488 kts | 60° |
| 2026-04-23 15:50 | 54.15792 | 1.36634 | 40186 ft | 487 kts | 60° |
| 2026-04-23 15:50 | 54.17596 | 1.41532 | 40377 ft | 487 kts | 60° |
| 2026-04-23 15:51 | 54.19397 | 1.46427 | 40599 ft | 487 kts | 60° |
| 2026-04-23 15:51 | 54.21194 | 1.51326 | 40803 ft | 487 kts | 60° |
| 2026-04-23 15:51 | 54.22985 | 1.56215 | 40988 ft | 486 kts | 60° |
| 2026-04-23 15:51 | 54.24778 | 1.61121 | 41139 ft | 488 kts | 60° |
| 2026-04-23 15:52 | 54.26585 | 1.66074 | 41194 ft | 491 kts | 60° |
| 2026-04-23 15:52 | 54.28397 | 1.71050 | 41339 ft | 491 kts | 60° |
| 2026-04-23 15:52 | 54.30199 | 1.76008 | 41478 ft | 492 kts | 60° |
| 2026-04-23 15:53 | 54.33805 | 1.85959 | 41493 ft | 490 kts | 60° |
| 2026-04-23 15:53 | 54.37386 | 1.95881 | 41490 ft | 490 kts | 60° |
| 2026-04-23 15:54 | 54.40963 | 2.05835 | 41490 ft | 490 kts | 60° |
| 2026-04-23 15:54 | 54.44542 | 2.15834 | 41484 ft | 490 kts | 60° |
| 2026-04-23 15:55 | 54.48105 | 2.25830 | 41488 ft | 491 kts | 60° |
| 2026-04-23 15:55 | 54.51643 | 2.35794 | 41490 ft | 491 kts | 60° |
| 2026-04-23 15:56 | 54.55197 | 2.45847 | 41484 ft | 491 kts | 60° |
| 2026-04-23 15:56 | 54.58744 | 2.55917 | 41484 ft | 491 kts | 60° |
| 2026-04-23 15:57 | 54.62280 | 2.66001 | 41482 ft | 491 kts | 60° |
| 2026-04-23 15:57 | 54.65808 | 2.76099 | 41481 ft | 490 kts | 61° |
| 2026-04-23 15:58 | 54.69307 | 2.86159 | 41478 ft | 489 kts | 61° |
| 2026-04-23 15:58 | 54.72802 | 2.96251 | 41477 ft | 489 kts | 61° |
| 2026-04-23 15:59 | 54.76429 | 3.06242 | 41477 ft | 491 kts | 56° |
| 2026-04-23 15:59 | 54.80462 | 3.15784 | 41473 ft | 491 kts | 55° |
| 2026-04-23 16:00 | 54.84548 | 3.25286 | 41475 ft | 491 kts | 55° |
| 2026-04-23 16:00 | 54.88634 | 3.34810 | 41470 ft | 492 kts | 55° |
| 2026-04-23 16:01 | 54.92685 | 3.44311 | 41470 ft | 492 kts | 55° |
| 2026-04-23 16:01 | 54.96762 | 3.53922 | 41461 ft | 492 kts | 55° |
| 2026-04-23 16:02 | 55.00825 | 3.63537 | 41460 ft | 493 kts | 55° |
| 2026-04-23 16:02 | 55.04891 | 3.73199 | 41455 ft | 493 kts | 55° |
| 2026-04-23 16:03 | 55.08938 | 3.82853 | 41451 ft | 493 kts | 56° |
| 2026-04-23 16:03 | 55.12912 | 3.92574 | 41446 ft | 493 kts | 60° |
| 2026-04-23 16:04 | 55.15929 | 4.03315 | 41429 ft | 491 kts | 68° |
| 2026-04-23 16:04 | 55.18594 | 4.14325 | 41430 ft | 491 kts | 70° |
| 2026-04-23 16:05 | 55.20766 | 4.23545 | 41425 ft | 492 kts | 69° |
| 2026-04-23 16:05 | 55.23797 | 4.36440 | 41424 ft | 493 kts | 70° |
| 2026-04-23 16:06 | 55.26413 | 4.47573 | 41436 ft | 494 kts | 69° |
| 2026-04-23 16:06 | 55.29032 | 4.58762 | 41427 ft | 495 kts | 69° |
| 2026-04-23 16:07 | 55.31636 | 4.69935 | 41428 ft | 494 kts | 69° |
| 2026-04-23 16:07 | 55.34231 | 4.81133 | 41409 ft | 495 kts | 70° |
| 2026-04-23 16:08 | 55.36807 | 4.92320 | 41407 ft | 495 kts | 70° |
| 2026-04-23 16:08 | 55.39385 | 5.03546 | 41406 ft | 495 kts | 69° |
| 2026-04-23 16:09 | 55.41937 | 5.14722 | 41397 ft | 495 kts | 70° |
| 2026-04-23 16:09 | 55.44529 | 5.25967 | 41397 ft | 497 kts | 66° |
| 2026-04-23 16:10 | 55.48055 | 5.36500 | 41395 ft | 499 kts | 58° |
| 2026-04-23 16:10 | 55.51845 | 5.46688 | 41390 ft | 499 kts | 58° |
| 2026-04-23 16:11 | 55.55673 | 5.56908 | 41399 ft | 498 kts | 57° |
| 2026-04-23 16:11 | 55.59479 | 5.67148 | 41383 ft | 498 kts | 58° |
| 2026-04-23 16:12 | 55.62627 | 5.75671 | 41383 ft | 498 kts | 57° |
| 2026-04-23 16:12 | 55.66405 | 5.85948 | 41372 ft | 499 kts | 57° |
| 2026-04-23 16:13 | 55.70183 | 5.96269 | 41372 ft | 500 kts | 57° |
| 2026-04-23 16:13 | 55.75851 | 6.11831 | 41356 ft | 501 kts | 58° |
| 2026-04-23 16:14 | 55.79625 | 6.22253 | 41355 ft | 500 kts | 57° |
| 2026-04-23 16:14 | 55.83385 | 6.32679 | 41337 ft | 498 kts | 57° |
| 2026-04-23 16:15 | 55.87116 | 6.43068 | 41338 ft | 498 kts | 57° |
| 2026-04-23 16:15 | 55.90823 | 6.53432 | 41340 ft | 498 kts | 57° |
| 2026-04-23 16:16 | 55.94559 | 6.63926 | 41346 ft | 498 kts | 57° |
| 2026-04-23 16:16 | 55.98251 | 6.74333 | 41325 ft | 500 kts | 58° |
| 2026-04-23 16:17 | 56.01958 | 6.84833 | 41316 ft | 499 kts | 57° |
| 2026-04-23 16:17 | 56.05646 | 6.95328 | 41315 ft | 496 kts | 57° |
| 2026-04-23 16:18 | 56.09288 | 7.05734 | 41312 ft | 496 kts | 57° |
| 2026-04-23 16:18 | 56.12941 | 7.16213 | 41294 ft | 496 kts | 57° |
| 2026-04-23 16:19 | 56.16596 | 7.26744 | 41297 ft | 498 kts | 57° |
| 2026-04-23 16:19 | 56.20254 | 7.37331 | 41275 ft | 498 kts | 57° |
| 2026-04-23 16:20 | 56.23898 | 7.47924 | 41280 ft | 498 kts | 57° |
| 2026-04-23 16:20 | 56.27528 | 7.58515 | 41269 ft | 496 kts | 57° |
| 2026-04-23 16:21 | 56.31135 | 7.69103 | 41266 ft | 496 kts | 57° |
| 2026-04-23 16:21 | 56.34717 | 7.79664 | 41267 ft | 497 kts | 57° |
| 2026-04-23 16:22 | 56.38306 | 7.90285 | 41249 ft | 498 kts | 57° |
| 2026-04-23 16:22 | 56.41905 | 8.00975 | 41251 ft | 497 kts | 58° |
| 2026-04-23 16:23 | 56.45483 | 8.11654 | 41252 ft | 497 kts | 57° |
| 2026-04-23 16:23 | 56.49054 | 8.22313 | 41238 ft | 494 kts | 56° |
| 2026-04-23 16:24 | 56.52771 | 8.32752 | 41235 ft | 493 kts | 54° |
| 2026-04-23 16:24 | 56.56531 | 8.43138 | 41225 ft | 493 kts | 55° |
| 2026-04-23 16:25 | 56.60270 | 8.53593 | 41227 ft | 494 kts | 54° |
| 2026-04-23 16:25 | 56.63983 | 8.64093 | 41218 ft | 494 kts | 55° |
| 2026-04-23 16:26 | 56.67656 | 8.74543 | 41209 ft | 494 kts | 55° |
| 2026-04-23 16:26 | 56.71355 | 8.85055 | 41207 ft | 490 kts | 53° |
| 2026-04-23 16:27 | 56.75549 | 8.94747 | 41198 ft | 486 kts | 49° |
| 2026-04-23 16:27 | 56.79867 | 9.04255 | 41200 ft | 486 kts | 48° |
| 2026-04-23 16:28 | 56.84172 | 9.13692 | 41195 ft | 486 kts | 48° |
| 2026-04-23 16:28 | 56.88497 | 9.23216 | 41186 ft | 486 kts | 48° |
| 2026-04-23 16:29 | 56.92808 | 9.32756 | 41181 ft | 486 kts | 48° |
| 2026-04-23 16:29 | 56.97109 | 9.42319 | 41172 ft | 487 kts | 48° |
| 2026-04-23 16:30 | 57.01403 | 9.51906 | 41164 ft | 485 kts | 48° |
| 2026-04-23 16:30 | 57.05668 | 9.61467 | 41159 ft | 483 kts | 48° |
| 2026-04-23 16:31 | 57.09609 | 9.71495 | 41156 ft | 485 kts | 53° |
| 2026-04-23 16:31 | 57.13328 | 9.81852 | 41156 ft | 485 kts | 54° |
| 2026-04-23 16:32 | 57.17079 | 9.92169 | 41156 ft | 485 kts | 53° |
| 2026-04-23 16:32 | 57.20885 | 10.02467 | 41157 ft | 485 kts | 53° |
| 2026-04-23 16:33 | 57.24686 | 10.12731 | 41164 ft | 485 kts | 53° |
| 2026-04-23 16:33 | 57.28464 | 10.22978 | 41159 ft | 484 kts | 53° |
| 2026-04-23 16:34 | 57.32231 | 10.33248 | 41154 ft | 483 kts | 53° |
| 2026-04-23 16:34 | 57.35995 | 10.43554 | 41154 ft | 483 kts | 53° |
| 2026-04-23 16:35 | 57.39741 | 10.53857 | 41152 ft | 483 kts | 53° |
| 2026-04-23 16:35 | 57.43491 | 10.64214 | 41149 ft | 483 kts | 53° |
| 2026-04-23 16:36 | 57.47231 | 10.74589 | 41154 ft | 483 kts | 53° |
| 2026-04-23 16:36 | 57.50962 | 10.84986 | 41146 ft | 484 kts | 53° |
| 2026-04-23 16:37 | 57.54690 | 10.95421 | 41156 ft | 482 kts | 53° |
| 2026-04-23 16:37 | 57.58406 | 11.05759 | 41157 ft | 479 kts | 50° |
| 2026-04-23 16:38 | 57.62552 | 11.15516 | 41137 ft | 478 kts | 47° |
| 2026-04-23 16:38 | 57.66511 | 11.25486 | 41134 ft | 481 kts | 54° |
| 2026-04-23 16:39 | 57.70061 | 11.36002 | 41138 ft | 482 kts | 54° |
| 2026-04-23 16:39 | 57.73573 | 11.46703 | 41135 ft | 483 kts | 55° |
| 2026-04-23 16:40 | 57.77072 | 11.57442 | 41132 ft | 483 kts | 55° |
| 2026-04-23 16:40 | 57.80577 | 11.68226 | 41130 ft | 483 kts | 55° |
| 2026-04-23 16:41 | 57.84063 | 11.78983 | 41129 ft | 483 kts | 55° |
| 2026-04-23 16:41 | 57.87551 | 11.89791 | 41129 ft | 483 kts | 55° |
| 2026-04-23 16:42 | 57.91025 | 12.00608 | 41135 ft | 483 kts | 55° |
| 2026-04-23 16:42 | 57.94492 | 12.11452 | 41131 ft | 484 kts | 55° |
| 2026-04-23 16:43 | 57.97931 | 12.22260 | 41125 ft | 484 kts | 55° |
| 2026-04-23 16:43 | 58.01388 | 12.33175 | 41138 ft | 484 kts | 55° |
| 2026-04-23 16:44 | 58.04833 | 12.44099 | 41112 ft | 483 kts | 55° |
| 2026-04-23 16:44 | 58.08259 | 12.55017 | 41111 ft | 484 kts | 55° |
| 2026-04-23 16:45 | 58.11687 | 12.65988 | 41114 ft | 484 kts | 55° |
| 2026-04-23 16:45 | 58.15099 | 12.76962 | 41111 ft | 484 kts | 56° |
| 2026-04-23 16:46 | 58.18506 | 12.87971 | 41106 ft | 484 kts | 56° |
| 2026-04-23 16:46 | 58.21885 | 12.98940 | 41105 ft | 484 kts | 56° |
| 2026-04-23 16:47 | 58.25294 | 13.10063 | 41113 ft | 484 kts | 55° |
| 2026-04-23 16:47 | 58.28643 | 13.21041 | 41102 ft | 482 kts | 56° |
| 2026-04-23 16:48 | 58.31990 | 13.32060 | 41100 ft | 482 kts | 56° |
| 2026-04-23 16:48 | 58.35337 | 13.43133 | 41095 ft | 482 kts | 56° |
| 2026-04-23 16:49 | 58.38676 | 13.54233 | 41091 ft | 482 kts | 56° |
| 2026-04-23 16:49 | 58.41994 | 13.65313 | 41092 ft | 482 kts | 56° |
| 2026-04-23 16:50 | 58.45312 | 13.76448 | 41091 ft | 482 kts | 56° |
| 2026-04-23 16:50 | 58.48595 | 13.87520 | 41095 ft | 482 kts | 56° |
| 2026-04-23 16:51 | 58.51882 | 13.98661 | 41085 ft | 480 kts | 56° |
| 2026-04-23 16:51 | 58.55154 | 14.09802 | 41082 ft | 480 kts | 56° |
| 2026-04-23 16:52 | 58.58411 | 14.20945 | 41058 ft | 479 kts | 56° |
| 2026-04-23 16:52 | 58.61665 | 14.32073 | 41054 ft | 478 kts | 55° |
| 2026-04-23 16:53 | 58.64993 | 14.43125 | 41050 ft | 478 kts | 54° |
| 2026-04-23 16:53 | 58.68329 | 14.54190 | 41053 ft | 478 kts | 55° |
| 2026-04-23 16:54 | 58.71636 | 14.65270 | 41058 ft | 478 kts | 54° |
| 2026-04-23 16:54 | 58.74922 | 14.76370 | 41064 ft | 476 kts | 55° |
| 2026-04-23 16:55 | 58.78183 | 14.87443 | 41058 ft | 475 kts | 54° |
| 2026-04-23 16:55 | 58.81416 | 14.98466 | 41057 ft | 474 kts | 55° |
| 2026-04-23 16:56 | 58.84654 | 15.09555 | 41049 ft | 475 kts | 55° |
| 2026-04-23 16:56 | 58.87883 | 15.20669 | 41052 ft | 475 kts | 55° |
| 2026-04-23 16:57 | 58.91105 | 15.31817 | 41047 ft | 475 kts | 55° |
| 2026-04-23 16:57 | 58.94319 | 15.42987 | 41061 ft | 475 kts | 55° |
| 2026-04-23 16:58 | 58.97517 | 15.54162 | 41043 ft | 474 kts | 55° |
| 2026-04-23 16:58 | 59.00713 | 15.65376 | 41033 ft | 474 kts | 55° |
| 2026-04-23 16:59 | 59.03360 | 15.74709 | 41028 ft | 475 kts | 55° |
| 2026-04-23 16:59 | 59.06534 | 15.85948 | 41017 ft | 475 kts | 55° |
| 2026-04-23 17:00 | 59.09705 | 15.97234 | 41027 ft | 475 kts | 55° |
| 2026-04-23 17:00 | 59.12799 | 16.08299 | 41022 ft | 475 kts | 55° |
| 2026-04-23 17:01 | 59.15951 | 16.19629 | 41020 ft | 475 kts | 55° |
| 2026-04-23 17:01 | 59.19086 | 16.30955 | 41014 ft | 473 kts | 56° |
| 2026-04-23 17:02 | 59.22178 | 16.42184 | 41009 ft | 472 kts | 56° |
| 2026-04-23 17:02 | 59.25276 | 16.53481 | 41006 ft | 472 kts | 56° |
| 2026-04-23 17:03 | 59.28369 | 16.64817 | 41004 ft | 472 kts | 56° |
| 2026-04-23 17:03 | 59.31451 | 16.76172 | 40999 ft | 472 kts | 56° |
| 2026-04-23 17:04 | 59.34506 | 16.87560 | 40996 ft | 473 kts | 57° |
| 2026-04-23 17:04 | 59.37411 | 16.99178 | 41000 ft | 473 kts | 58° |
| 2026-04-23 17:05 | 59.40256 | 17.10795 | 40990 ft | 470 kts | 58° |
| 2026-04-23 17:05 | 59.43083 | 17.22265 | 40987 ft | 469 kts | 57° |
| 2026-04-23 17:06 | 59.45932 | 17.33800 | 40990 ft | 469 kts | 57° |
| 2026-04-23 17:06 | 59.48772 | 17.45342 | 40982 ft | 469 kts | 58° |
| 2026-04-23 17:07 | 59.51602 | 17.56910 | 40979 ft | 469 kts | 58° |
| 2026-04-23 17:07 | 59.54419 | 17.68494 | 40979 ft | 469 kts | 58° |
| 2026-04-23 17:08 | 59.57229 | 17.80112 | 40980 ft | 469 kts | 58° |
| 2026-04-23 17:08 | 59.60032 | 17.91763 | 40976 ft | 469 kts | 58° |
| 2026-04-23 17:09 | 59.62811 | 18.03377 | 40967 ft | 467 kts | 58° |
| 2026-04-23 17:09 | 59.65584 | 18.15025 | 40966 ft | 467 kts | 58° |
| 2026-04-23 17:10 | 59.68325 | 18.26601 | 40971 ft | 468 kts | 58° |
| 2026-04-23 17:10 | 59.71079 | 18.38291 | 40973 ft | 468 kts | 58° |
| 2026-04-23 17:11 | 59.73818 | 18.49986 | 41004 ft | 468 kts | 58° |
| 2026-04-23 17:11 | 59.76552 | 18.61723 | 40981 ft | 468 kts | 58° |
| 2026-04-23 17:12 | 59.79270 | 18.73454 | 41009 ft | 468 kts | 58° |
| 2026-04-23 17:12 | 59.81959 | 18.85126 | 40986 ft | 467 kts | 58° |
| 2026-04-23 17:13 | 59.84655 | 18.96890 | 40985 ft | 467 kts | 58° |
| 2026-04-23 17:13 | 59.87340 | 19.08671 | 40980 ft | 468 kts | 58° |
| 2026-04-23 17:14 | 59.90019 | 19.20490 | 40980 ft | 468 kts | 59° |
| 2026-04-23 17:14 | 59.92684 | 19.32314 | 40987 ft | 468 kts | 59° |
| 2026-04-23 17:15 | 59.95348 | 19.44193 | 40973 ft | 469 kts | 59° |
| 2026-04-23 17:15 | 59.97999 | 19.56090 | 40972 ft | 470 kts | 59° |
| 2026-04-23 17:16 | 60.00570 | 19.68129 | 40968 ft | 475 kts | 64° |
| 2026-04-23 17:16 | 60.02294 | 19.80774 | 40963 ft | 480 kts | 69° |
| 2026-04-23 17:17 | 60.03849 | 19.93789 | 40968 ft | 481 kts | 69° |
| 2026-04-23 17:17 | 60.05378 | 20.06808 | 40964 ft | 481 kts | 70° |
| 2026-04-23 17:18 | 60.07649 | 20.26407 | 40963 ft | 481 kts | 70° |
| 2026-04-23 17:19 | 60.09135 | 20.39396 | 40959 ft | 481 kts | 70° |
| 2026-04-23 17:19 | 60.10624 | 20.52544 | 40955 ft | 481 kts | 70° |
| 2026-04-23 17:20 | 60.12085 | 20.65564 | 40948 ft | 481 kts | 70° |
| 2026-04-23 17:21 | 60.14984 | 20.91776 | 40945 ft | 481 kts | 70° |
| 2026-04-23 17:21 | 60.17118 | 21.11412 | 40947 ft | 481 kts | 71° |
| 2026-04-23 17:22 | 60.19230 | 21.31140 | 40942 ft | 481 kts | 71° |
| 2026-04-23 17:23 | 60.20621 | 21.44299 | 40664 ft | 481 kts | 71° |
| 2026-04-23 17:23 | 60.21312 | 21.50884 | 40425 ft | 481 kts | 71° |
| 2026-04-23 17:23 | 60.22681 | 21.64036 | 39955 ft | 481 kts | 71° |
| 2026-04-23 17:24 | 60.23361 | 21.70624 | 39614 ft | 479 kts | 70° |
| 2026-04-23 17:24 | 60.24037 | 21.77211 | 38864 ft | 480 kts | 70° |
| 2026-04-23 17:24 | 60.25387 | 21.90438 | 37094 ft | 483 kts | 70° |
| 2026-04-23 17:25 | 60.26722 | 22.03693 | 35483 ft | 481 kts | 69° |
| 2026-04-23 17:25 | 60.27372 | 22.10198 | 34646 ft | 480 kts | 69° |
| 2026-04-23 17:26 | 60.28682 | 22.23387 | 32756 ft | 478 kts | 68° |
| 2026-04-23 17:26 | 60.29955 | 22.36370 | 30195 ft | 474 kts | 69° |
| 2026-04-23 17:27 | 60.31234 | 22.49483 | 28168 ft | 473 kts | 69° |
| 2026-04-23 17:27 | 60.31857 | 22.55986 | 27327 ft | 470 kts | 69° |
| 2026-04-23 17:27 | 60.32472 | 22.62416 | 26476 ft | 466 kts | 69° |
| 2026-04-23 17:27 | 60.33084 | 22.68842 | 25629 ft | 464 kts | 69° |
| 2026-04-23 17:28 | 60.33688 | 22.75216 | 24814 ft | 462 kts | 69° |
| 2026-04-23 17:28 | 60.34288 | 22.81571 | 23954 ft | 460 kts | 70° |
| 2026-04-23 17:28 | 60.34884 | 22.87914 | 23035 ft | 458 kts | 70° |
| 2026-04-23 17:28 | 60.35470 | 22.94212 | 22152 ft | 453 kts | 70° |
| 2026-04-23 17:29 | 60.36044 | 23.00422 | 21299 ft | 448 kts | 70° |
| 2026-04-23 17:29 | 60.36612 | 23.06593 | 20457 ft | 443 kts | 70° |
| 2026-04-23 17:29 | 60.37716 | 23.18646 | 18787 ft | 435 kts | 71° |
| 2026-04-23 17:30 | 60.38084 | 23.22697 | 18265 ft | 432 kts | 71° |
| 2026-04-23 17:30 | 60.39322 | 23.36421 | 16203 ft | 421 kts | 72° |
| 2026-04-23 17:30 | 60.39840 | 23.42218 | 15371 ft | 416 kts | 72° |
| 2026-04-23 17:31 | 60.40348 | 23.47942 | 14479 ft | 404 kts | 72° |
| 2026-04-23 17:31 | 60.40825 | 23.53404 | 13550 ft | 385 kts | 72° |
| 2026-04-23 17:31 | 60.41282 | 23.58633 | 12633 ft | 376 kts | 73° |
| 2026-04-23 17:31 | 60.41738 | 23.63794 | 12212 ft | 364 kts | 73° |
| 2026-04-23 17:32 | 60.42161 | 23.68709 | 12080 ft | 345 kts | 73° |
| 2026-04-23 17:32 | 60.42563 | 23.73388 | 11939 ft | 328 kts | 72° |
| 2026-04-23 17:32 | 60.42944 | 23.77812 | 11804 ft | 312 kts | 72° |
| 2026-04-23 17:32 | 60.43309 | 23.82044 | 11660 ft | 297 kts | 72° |
| 2026-04-23 17:33 | 60.43650 | 23.86022 | 11536 ft | 285 kts | 71° |
| 2026-04-23 17:33 | 60.43980 | 23.89925 | 11378 ft | 280 kts | 72° |
| 2026-04-23 17:33 | 60.44158 | 23.93882 | 11241 ft | 285 kts | 82° |
| 2026-04-23 17:33 | 60.43839 | 23.97906 | 10780 ft | 299 kts | 103° |
| 2026-04-23 17:34 | 60.42851 | 24.01667 | 10380 ft | 304 kts | 117° |
| 2026-04-23 17:34 | 60.41683 | 24.05216 | 10012 ft | 303 kts | 119° |
| 2026-04-23 17:34 | 60.39324 | 24.12221 | 9188 ft | 298 kts | 119° |
| 2026-04-23 17:35 | 60.38165 | 24.15648 | 8661 ft | 291 kts | 120° |
| 2026-04-23 17:35 | 60.36281 | 24.21205 | 7476 ft | 285 kts | 120° |
| 2026-04-23 17:35 | 60.34816 | 24.25508 | 6703 ft | 275 kts | 121° |
| 2026-04-23 17:36 | 60.33738 | 24.28672 | 6039 ft | 271 kts | 122° |
| 2026-04-23 17:36 | 60.32673 | 24.31789 | 5383 ft | 268 kts | 122° |
| 2026-04-23 17:36 | 60.31615 | 24.34879 | 4718 ft | 270 kts | 122° |
| 2026-04-23 17:36 | 60.30552 | 24.37997 | 4295 ft | 269 kts | 122° |
| 2026-04-23 17:37 | 60.29485 | 24.41095 | 3952 ft | 266 kts | 122° |
| 2026-04-23 17:37 | 60.28428 | 24.44138 | 3595 ft | 264 kts | 122° |
| 2026-04-23 17:37 | 60.26364 | 24.50172 | 2892 ft | 259 kts | 122° |
| 2026-04-23 17:38 | 60.25355 | 24.53111 | 2548 ft | 257 kts | 122° |
| 2026-04-23 17:38 | 60.24356 | 24.56026 | 2323 ft | 249 kts | 122° |
| 2026-04-23 17:38 | 60.23408 | 24.58757 | 2267 ft | 223 kts | 122° |
| 2026-04-23 17:38 | 60.22563 | 24.61183 | 2284 ft | 202 kts | 122° |
| 2026-04-23 17:39 | 60.21784 | 24.63436 | 2317 ft | 193 kts | 122° |
| 2026-04-23 17:39 | 60.21119 | 24.65740 | 2282 ft | 190 kts | 104° |
| 2026-04-23 17:39 | 60.21207 | 24.68282 | 2287 ft | 181 kts | 64° |
| 2026-04-23 17:39 | 60.21949 | 24.70231 | 2301 ft | 175 kts | 38° |
| 2026-04-23 17:40 | 60.22855 | 24.71860 | 2294 ft | 174 kts | 39° |
| 2026-04-23 17:40 | 60.23695 | 24.73622 | 2296 ft | 176 kts | 45° |
| 2026-04-23 17:40 | 60.24493 | 24.75495 | 2216 ft | 177 kts | 44° |
| 2026-04-23 17:40 | 60.25340 | 24.77314 | 1919 ft | 179 kts | 43° |
| 2026-04-23 17:41 | 60.26155 | 24.79099 | 1680 ft | 165 kts | 44° |
| 2026-04-23 17:41 | 60.27596 | 24.82268 | 1250 ft | 144 kts | 44° |
| 2026-04-23 17:41 | 60.28243 | 24.83694 | 1050 ft | 134 kts | 44° |
| 2026-04-23 17:42 | 60.29441 | 24.86314 | 697 ft | 127 kts | 44° |
| 2026-04-23 17:42 | 60.30027 | 24.87638 | 487 ft | 124 kts | 44° |
| 2026-04-23 17:42 | 60.30622 | 24.88914 | 375 ft | 124 kts | 43° |
| 2026-04-23 17:43 | 60.31214 | 24.90188 | 217 ft | 124 kts | 43° |
| 2026-04-23 17:43 | 60.31783 | 24.91404 | 165 ft | 107 kts | 45° |
| 2026-04-23 17:43 | 60.32097 | 24.92137 | 172 ft | 38 kts | 50° |
| 2026-04-23 17:43 | 60.32272 | 24.92534 | 178 ft | 40 kts | 47° |
| 2026-04-23 17:44 | 60.32434 | 24.93039 | 181 ft | 45 kts | 70° |
| 2026-04-23 17:44 | 60.32488 | 24.93480 | 198 ft | 1 kts | 78° |
| 2026-04-23 17:44 | 60.32493 | 24.93522 | 200 ft | 6 kts | 78° |
| 2026-04-23 17:45 | 60.32506 | 24.93642 | 198 ft | 11 kts | 78° |
| 2026-04-23 17:45 | 60.32587 | 24.94028 | 199 ft | 18 kts | 46° |
| 2026-04-23 17:45 | 60.32679 | 24.94228 | 204 ft | 21 kts | 47° |
| 2026-04-23 17:46 | 60.32889 | 24.94689 | 206 ft | 17 kts | 47° |
| 2026-04-23 17:46 | 60.32922 | 24.94773 | 206 ft | 11 kts | 65° |
| 2026-04-23 17:46 | 60.32842 | 24.94946 | 201 ft | 19 kts | 162° |
| 2026-04-23 17:47 | 60.32746 | 24.95006 | 180 ft | 24 kts | 162° |
| 2026-04-23 17:47 | 60.32570 | 24.95123 | 174 ft | 30 kts | 161° |
| 2026-04-23 17:47 | 60.32250 | 24.95433 | 169 ft | 19 kts | 137° |
| 2026-04-23 17:48 | 60.32188 | 24.95549 | 168 ft | 11 kts | 137° |
| 2026-04-23 17:48 | 60.32184 | 24.95557 | 168 ft | 0 kts | 137° |
| 2026-04-23 17:48 | 60.32178 | 24.95568 | 168 ft | 5 kts | 137° |
| 2026-04-23 17:48 | 60.32118 | 24.95680 | 167 ft | 18 kts | 137° |
| 2026-04-23 17:49 | 60.32013 | 24.95871 | 168 ft | 22 kts | 138° |
| 2026-04-23 17:49 | 60.31977 | 24.95937 | 168 ft | 0 kts | 138° |
| 2026-04-23 17:50 | 60.31968 | 24.95950 | 168 ft | 5 kts | 146° |
| 2026-04-23 17:51 | 60.31918 | 24.95938 | 168 ft | 8 kts | 220° |
| 2026-04-23 17:51 | 60.31868 | 24.95826 | 167 ft | 14 kts | 229° |
| 2026-04-23 17:51 | 60.31698 | 24.95436 | 165 ft | 23 kts | 228° |
| 2026-04-23 17:52 | 60.31579 | 24.95179 | 166 ft | 27 kts | 227° |
| 2026-04-23 17:52 | 60.31408 | 24.95052 | 163 ft | 11 kts | 130° |
| 2026-04-23 17:52 | 60.31348 | 24.95175 | 164 ft | 14 kts | 136° |
| 2026-04-23 17:53 | 60.31305 | 24.95257 | 165 ft | 0 kts | 136° |
| 2026-04-23 17:53 | 60.31302 | 24.95261 | 165 ft | 1 kts | 136° |
| 2026-04-23 17:53 | 60.31291 | 24.95282 | 165 ft | 5 kts | 136° |
| 2026-04-23 17:54 | 60.31234 | 24.95390 | 166 ft | 16 kts | 137° |
| 2026-04-23 17:54 | 60.31167 | 24.95572 | 168 ft | 15 kts | 90° |
| 2026-04-23 17:54 | 60.31238 | 24.95728 | 170 ft | 3 kts | 354° |
| 2026-04-23 17:55 | 60.31288 | 24.95645 | 169 ft | 6 kts | 320° |
| 2026-04-23 17:55 | 60.31289 | 24.95643 | 168 ft | 0 kts | 320° |